KBRY/BRY METAR and TAF weather

Enter ICAO airport designator
Station Type Date Time Source
KBRY METAR 2018/10/19 15:55 UTC NOAA

KBRY 191555Z AUTO 21005KT 10SM CLR 13/05 A3023 RMK AO1


Station Type Date Time Source
KBRY Decoded METAR 2018/10/19 15:55 UTC NOAA

Station name not available
Oct 19, 2018 - 11:55 AM EDT / 2018.10.19 1555 UTC
Wind: from the SSW (210 degrees) at 6 MPH (5 KT):0
Visibility: 10 mile(s):0
Sky conditions: clear
Temperature: 55 F (13 C)
Dew Point: 41 F (5 C)
Relative Humidity: 58%
Pressure (altimeter): 30.23 in. Hg (1023 hPa)
ob: KBRY 191555Z AUTO 21005KT 10SM CLR 13/05 A3023 RMK AO1
cycle: 16

Station Type Date Time Source
KBRY TAF UTC NOAA

Error!


Example: see airport list